sensor_id;sensor_type;location;lat;lon;timestamp;P1;durP1;ratioP1;P2;durP2;ratioP2
38683;SDS011;24910;53.248;-6.134;2022-08-03T00:00:40;10.23;;;3.20;;
38683;SDS011;24910;53.248;-6.134;2022-08-03T00:03:09;8.65;;;3.58;;
38683;SDS011;24910;53.248;-6.134;2022-08-03T00:05:38;5.07;;;3.17;;
38683;SDS011;24910;53.248;-6.134;2022-08-03T00:08:29;8.38;;;3.58;;
38683;SDS011;24910;53.248;-6.134;2022-08-03T00:10:58;10.37;;;3.30;;
38683;SDS011;24910;53.248;-6.134;2022-08-03T00:13:27;8.68;;;3.42;;
38683;SDS011;24910;53.248;-6.134;2022-08-03T00:15:56;6.15;;;3.30;;
38683;SDS011;24910;53.248;-6.134;2022-08-03T00:18:25;7.93;;;3.00;;
38683;SDS011;24910;53.248;-6.134;2022-08-03T00:20:54;7.63;;;3.20;;
38683;SDS011;24910;53.248;-6.134;2022-08-03T00:23:23;6.03;;;2.72;;
38683;SDS011;24910;53.248;-6.134;2022-08-03T00:26:14;6.55;;;2.97;;
38683;SDS011;24910;53.248;-6.134;2022-08-03T00:28:43;9.93;;;3.73;;
38683;SDS011;24910;53.248;-6.134;2022-08-03T00:31:12;7.20;;;2.90;;
38683;SDS011;24910;53.248;-6.134;2022-08-03T00:33:41;7.03;;;3.17;;
38683;SDS011;24910;53.248;-6.134;2022-08-03T00:36:26;7.82;;;3.38;;
38683;SDS011;24910;53.248;-6.134;2022-08-03T00:38:55;5.82;;;2.88;;
38683;SDS011;24910;53.248;-6.134;2022-08-03T00:41:26;10.27;;;3.40;;
38683;SDS011;24910;53.248;-6.134;2022-08-03T00:43:55;8.57;;;3.13;;
38683;SDS011;24910;53.248;-6.134;2022-08-03T00:46:24;6.78;;;3.33;;
38683;SDS011;24910;53.248;-6.134;2022-08-03T00:48:53;7.32;;;3.17;;
38683;SDS011;24910;53.248;-6.134;2022-08-03T00:51:22;8.05;;;3.00;;
38683;SDS011;24910;53.248;-6.134;2022-08-03T00:53:52;8.75;;;2.85;;
38683;SDS011;24910;53.248;-6.134;2022-08-03T00:56:21;7.82;;;2.70;;
38683;SDS011;24910;53.248;-6.134;2022-08-03T00:58:52;9.48;;;3.25;;
38683;SDS011;24910;53.248;-6.134;2022-08-03T01:01:25;6.50;;;2.75;;
38683;SDS011;24910;53.248;-6.134;2022-08-03T01:03:58;10.57;;;2.72;;
38683;SDS011;24910;53.248;-6.134;2022-08-03T01:06:30;6.10;;;3.47;;
38683;SDS011;24910;53.248;-6.134;2022-08-03T01:09:08;5.07;;;2.90;;
38683;SDS011;24910;53.248;-6.134;2022-08-03T01:11:45;4.28;;;2.53;;
38683;SDS011;24910;53.248;-6.134;2022-08-03T01:14:31;4.97;;;2.83;;
38683;SDS011;24910;53.248;-6.134;2022-08-03T01:17:08;6.00;;;2.60;;
38683;SDS011;24910;53.248;-6.134;2022-08-03T01:19:44;4.13;;;2.35;;
38683;SDS011;24910;53.248;-6.134;2022-08-03T01:22:22;6.40;;;2.63;;
38683;SDS011;24910;53.248;-6.134;2022-08-03T01:25:11;7.63;;;2.97;;
38683;SDS011;24910;53.248;-6.134;2022-08-03T01:27:50;5.55;;;2.53;;
38683;SDS011;24910;53.248;-6.134;2022-08-03T01:30:26;5.15;;;2.53;;
38683;SDS011;24910;53.248;-6.134;2022-08-03T01:32:59;5.43;;;2.58;;
38683;SDS011;24910;53.248;-6.134;2022-08-03T01:35:32;4.05;;;2.70;;
38683;SDS011;24910;53.248;-6.134;2022-08-03T01:38:10;5.63;;;2.22;;
38683;SDS011;24910;53.248;-6.134;2022-08-03T01:40:42;4.25;;;2.60;;
38683;SDS011;24910;53.248;-6.134;2022-08-03T01:43:14;5.70;;;2.45;;
38683;SDS011;24910;53.248;-6.134;2022-08-03T01:46:09;4.63;;;2.33;;
38683;SDS011;24910;53.248;-6.134;2022-08-03T01:48:41;3.58;;;2.33;;
38683;SDS011;24910;53.248;-6.134;2022-08-03T01:51:12;5.70;;;2.70;;
38683;SDS011;24910;53.248;-6.134;2022-08-03T01:53:44;6.93;;;2.72;;
38683;SDS011;24910;53.248;-6.134;2022-08-03T01:56:16;6.05;;;2.53;;
38683;SDS011;24910;53.248;-6.134;2022-08-03T01:58:47;7.22;;;2.42;;
38683;SDS011;24910;53.248;-6.134;2022-08-03T02:01:20;5.90;;;2.42;;
38683;SDS011;24910;53.248;-6.134;2022-08-03T02:04:11;4.22;;;2.30;;
38683;SDS011;24910;53.248;-6.134;2022-08-03T02:06:42;4.32;;;2.58;;
38683;SDS011;24910;53.248;-6.134;2022-08-03T02:09:29;5.45;;;2.53;;
38683;SDS011;24910;53.248;-6.134;2022-08-03T02:11:59;7.10;;;2.40;;
38683;SDS011;24910;53.248;-6.134;2022-08-03T02:14:28;5.70;;;2.42;;
38683;SDS011;24910;53.248;-6.134;2022-08-03T02:17:00;6.82;;;2.60;;
38683;SDS011;24910;53.248;-6.134;2022-08-03T02:19:30;5.30;;;2.42;;
38683;SDS011;24910;53.248;-6.134;2022-08-03T02:22:02;3.88;;;2.47;;
38683;SDS011;24910;53.248;-6.134;2022-08-03T02:24:35;7.30;;;2.28;;
38683;SDS011;24910;53.248;-6.134;2022-08-03T02:27:05;4.72;;;2.40;;
38683;SDS011;24910;53.248;-6.134;2022-08-03T02:29:40;5.90;;;2.30;;
38683;SDS011;24910;53.248;-6.134;2022-08-03T02:32:16;6.43;;;2.35;;
38683;SDS011;24910;53.248;-6.134;2022-08-03T02:34:49;5.97;;;2.03;;
38683;SDS011;24910;53.248;-6.134;2022-08-03T02:37:20;5.72;;;2.40;;
38683;SDS011;24910;53.248;-6.134;2022-08-03T02:39:56;4.22;;;2.30;;
38683;SDS011;24910;53.248;-6.134;2022-08-03T02:42:31;4.72;;;2.40;;
38683;SDS011;24910;53.248;-6.134;2022-08-03T02:45:02;4.00;;;2.10;;
38683;SDS011;24910;53.248;-6.134;2022-08-03T02:47:38;3.17;;;2.03;;
38683;SDS011;24910;53.248;-6.134;2022-08-03T02:50:21;5.18;;;2.10;;
38683;SDS011;24910;53.248;-6.134;2022-08-03T02:52:52;4.65;;;2.00;;
38683;SDS011;24910;53.248;-6.134;2022-08-03T02:57:53;4.75;;;2.45;;
38683;SDS011;24910;53.248;-6.134;2022-08-03T03:00:27;5.70;;;2.45;;
38683;SDS011;24910;53.248;-6.134;2022-08-03T03:03:00;9.73;;;2.38;;
38683;SDS011;24910;53.248;-6.134;2022-08-03T03:05:32;5.03;;;2.30;;
38683;SDS011;24910;53.248;-6.134;2022-08-03T03:08:22;5.07;;;2.35;;
38683;SDS011;24910;53.248;-6.134;2022-08-03T03:10:55;9.23;;;2.35;;
38683;SDS011;24910;53.248;-6.134;2022-08-03T03:13:27;5.25;;;2.17;;
38683;SDS011;24910;53.248;-6.134;2022-08-03T03:15:58;5.33;;;2.73;;
38683;SDS011;24910;53.248;-6.134;2022-08-03T03:18:31;4.47;;;2.60;;
38683;SDS011;24910;53.248;-6.134;2022-08-03T03:21:02;6.22;;;2.35;;
38683;SDS011;24910;53.248;-6.134;2022-08-03T03:23:32;5.55;;;2.40;;
38683;SDS011;24910;53.248;-6.134;2022-08-03T03:26:04;5.80;;;2.35;;
38683;SDS011;24910;53.248;-6.134;2022-08-03T03:28:34;7.30;;;2.33;;
38683;SDS011;24910;53.248;-6.134;2022-08-03T03:31:04;6.45;;;2.45;;
38683;SDS011;24910;53.248;-6.134;2022-08-03T03:33:35;7.53;;;1.92;;
38683;SDS011;24910;53.248;-6.134;2022-08-03T03:38:34;6.85;;;2.45;;
38683;SDS011;24910;53.248;-6.134;2022-08-03T03:41:04;4.50;;;1.90;;
38683;SDS011;24910;53.248;-6.134;2022-08-03T03:43:33;7.57;;;2.22;;
38683;SDS011;24910;53.248;-6.134;2022-08-03T03:46:02;4.03;;;1.60;;
38683;SDS011;24910;53.248;-6.134;2022-08-03T03:48:32;6.60;;;1.77;;
38683;SDS011;24910;53.248;-6.134;2022-08-03T03:51:03;5.88;;;2.08;;
38683;SDS011;24910;53.248;-6.134;2022-08-03T03:53:32;4.07;;;1.70;;
38683;SDS011;24910;53.248;-6.134;2022-08-03T03:56:02;6.35;;;1.90;;
38683;SDS011;24910;53.248;-6.134;2022-08-03T03:58:31;5.57;;;1.98;;
38683;SDS011;24910;53.248;-6.134;2022-08-03T04:01:00;6.55;;;1.85;;
38683;SDS011;24910;53.248;-6.134;2022-08-03T04:03:29;8.13;;;1.88;;
38683;SDS011;24910;53.248;-6.134;2022-08-03T04:06:00;5.65;;;2.17;;
38683;SDS011;24910;53.248;-6.134;2022-08-03T04:08:47;6.35;;;2.05;;
38683;SDS011;24910;53.248;-6.134;2022-08-03T04:11:35;7.90;;;1.75;;
38683;SDS011;24910;53.248;-6.134;2022-08-03T04:14:07;6.15;;;2.05;;
38683;SDS011;24910;53.248;-6.134;2022-08-03T04:16:40;3.70;;;2.00;;
38683;SDS011;24910;53.248;-6.134;2022-08-03T04:19:13;8.40;;;1.90;;
38683;SDS011;24910;53.248;-6.134;2022-08-03T04:21:51;4.07;;;1.67;;
38683;SDS011;24910;53.248;-6.134;2022-08-03T04:24:26;6.63;;;2.22;;
38683;SDS011;24910;53.248;-6.134;2022-08-03T04:27:01;5.18;;;1.50;;
38683;SDS011;24910;53.248;-6.134;2022-08-03T04:29:34;5.90;;;1.83;;
38683;SDS011;24910;53.248;-6.134;2022-08-03T04:32:14;5.35;;;1.48;;
38683;SDS011;24910;53.248;-6.134;2022-08-03T04:34:45;4.28;;;1.33;;
38683;SDS011;24910;53.248;-6.134;2022-08-03T04:37:17;4.78;;;1.33;;
38683;SDS011;24910;53.248;-6.134;2022-08-03T04:39:53;4.85;;;1.60;;
38683;SDS011;24910;53.248;-6.134;2022-08-03T04:42:25;8.52;;;1.70;;
38683;SDS011;24910;53.248;-6.134;2022-08-03T04:44:55;5.35;;;1.83;;
38683;SDS011;24910;53.248;-6.134;2022-08-03T04:47:28;6.03;;;1.38;;
38683;SDS011;24910;53.248;-6.134;2022-08-03T04:50:00;7.78;;;1.40;;
38683;SDS011;24910;53.248;-6.134;2022-08-03T04:52:37;8.57;;;1.95;;
38683;SDS011;24910;53.248;-6.134;2022-08-03T04:55:07;5.22;;;1.60;;
38683;SDS011;24910;53.248;-6.134;2022-08-03T04:57:37;6.15;;;1.80;;
38683;SDS011;24910;53.248;-6.134;2022-08-03T05:00:07;6.35;;;1.80;;
38683;SDS011;24910;53.248;-6.134;2022-08-03T05:02:37;3.38;;;1.52;;
38683;SDS011;24910;53.248;-6.134;2022-08-03T05:05:06;6.03;;;1.52;;
38683;SDS011;24910;53.248;-6.134;2022-08-03T05:07:38;6.80;;;1.80;;
38683;SDS011;24910;53.248;-6.134;2022-08-03T05:10:08;7.07;;;1.77;;
38683;SDS011;24910;53.248;-6.134;2022-08-03T05:12:43;7.25;;;2.22;;
38683;SDS011;24910;53.248;-6.134;2022-08-03T05:15:13;7.50;;;2.20;;
38683;SDS011;24910;53.248;-6.134;2022-08-03T05:17:42;9.20;;;2.15;;
38683;SDS011;24910;53.248;-6.134;2022-08-03T05:20:11;6.55;;;2.30;;
38683;SDS011;24910;53.248;-6.134;2022-08-03T05:22:46;4.90;;;1.58;;
38683;SDS011;24910;53.248;-6.134;2022-08-03T05:25:15;4.37;;;1.60;;
38683;SDS011;24910;53.248;-6.134;2022-08-03T05:27:48;5.32;;;1.95;;
38683;SDS011;24910;53.248;-6.134;2022-08-03T05:30:18;6.32;;;2.10;;
38683;SDS011;24910;53.248;-6.134;2022-08-03T05:33:01;4.85;;;1.88;;
38683;SDS011;24910;53.248;-6.134;2022-08-03T05:35:31;6.40;;;1.77;;
38683;SDS011;24910;53.248;-6.134;2022-08-03T05:38:22;6.13;;;2.03;;
38683;SDS011;24910;53.248;-6.134;2022-08-03T05:41:01;4.63;;;1.80;;
38683;SDS011;24910;53.248;-6.134;2022-08-03T05:43:49;5.00;;;1.83;;
38683;SDS011;24910;53.248;-6.134;2022-08-03T05:46:18;3.58;;;1.60;;
38683;SDS011;24910;53.248;-6.134;2022-08-03T05:48:47;5.22;;;1.65;;
38683;SDS011;24910;53.248;-6.134;2022-08-03T05:51:17;5.60;;;1.75;;
38683;SDS011;24910;53.248;-6.134;2022-08-03T05:53:47;5.70;;;1.70;;
38683;SDS011;24910;53.248;-6.134;2022-08-03T05:56:20;7.60;;;1.93;;
38683;SDS011;24910;53.248;-6.134;2022-08-03T05:58:50;9.10;;;1.83;;
38683;SDS011;24910;53.248;-6.134;2022-08-03T06:01:20;8.10;;;1.67;;
38683;SDS011;24910;53.248;-6.134;2022-08-03T06:03:49;8.98;;;1.85;;
38683;SDS011;24910;53.248;-6.134;2022-08-03T06:06:20;7.10;;;1.85;;
38683;SDS011;24910;53.248;-6.134;2022-08-03T06:08:51;6.72;;;1.83;;
38683;SDS011;24910;53.248;-6.134;2022-08-03T06:11:20;5.60;;;1.60;;
38683;SDS011;24910;53.248;-6.134;2022-08-03T06:13:49;6.65;;;1.90;;
38683;SDS011;24910;53.248;-6.134;2022-08-03T06:16:18;8.82;;;2.28;;
38683;SDS011;24910;53.248;-6.134;2022-08-03T06:18:47;10.05;;;1.77;;
38683;SDS011;24910;53.248;-6.134;2022-08-03T06:21:17;7.80;;;1.60;;
38683;SDS011;24910;53.248;-6.134;2022-08-03T06:23:46;7.45;;;2.10;;
38683;SDS011;24910;53.248;-6.134;2022-08-03T06:26:26;10.48;;;2.20;;
38683;SDS011;24910;53.248;-6.134;2022-08-03T06:28:55;8.95;;;2.05;;
38683;SDS011;24910;53.248;-6.134;2022-08-03T06:31:25;6.43;;;1.40;;
38683;SDS011;24910;53.248;-6.134;2022-08-03T06:34:00;7.40;;;1.95;;
38683;SDS011;24910;53.248;-6.134;2022-08-03T06:36:50;8.10;;;1.80;;
38683;SDS011;24910;53.248;-6.134;2022-08-03T06:39:28;5.18;;;1.73;;
38683;SDS011;24910;53.248;-6.134;2022-08-03T06:41:58;7.97;;;1.73;;
38683;SDS011;24910;53.248;-6.134;2022-08-03T06:44:27;7.17;;;1.60;;
38683;SDS011;24910;53.248;-6.134;2022-08-03T06:46:56;9.73;;;1.75;;
38683;SDS011;24910;53.248;-6.134;2022-08-03T06:49:26;12.02;;;1.55;;
38683;SDS011;24910;53.248;-6.134;2022-08-03T06:51:57;8.00;;;2.00;;
38683;SDS011;24910;53.248;-6.134;2022-08-03T06:54:33;12.13;;;2.05;;
38683;SDS011;24910;53.248;-6.134;2022-08-03T06:57:05;12.23;;;2.05;;
38683;SDS011;24910;53.248;-6.134;2022-08-03T06:59:36;7.20;;;1.60;;
38683;SDS011;24910;53.248;-6.134;2022-08-03T07:02:25;11.52;;;2.53;;
38683;SDS011;24910;53.248;-6.134;2022-08-03T07:04:55;11.15;;;2.05;;
38683;SDS011;24910;53.248;-6.134;2022-08-03T07:07:24;6.93;;;1.60;;
38683;SDS011;24910;53.248;-6.134;2022-08-03T07:09:53;13.70;;;2.08;;
38683;SDS011;24910;53.248;-6.134;2022-08-03T07:12:26;10.40;;;1.98;;
38683;SDS011;24910;53.248;-6.134;2022-08-03T07:14:57;9.38;;;1.80;;
38683;SDS011;24910;53.248;-6.134;2022-08-03T07:17:30;8.48;;;2.08;;
38683;SDS011;24910;53.248;-6.134;2022-08-03T07:20:01;6.53;;;1.97;;
38683;SDS011;24910;53.248;-6.134;2022-08-03T07:22:33;7.38;;;1.73;;
38683;SDS011;24910;53.248;-6.134;2022-08-03T07:25:02;13.60;;;2.00;;
38683;SDS011;24910;53.248;-6.134;2022-08-03T07:27:34;8.70;;;1.83;;
38683;SDS011;24910;53.248;-6.134;2022-08-03T07:30:05;6.95;;;1.75;;
38683;SDS011;24910;53.248;-6.134;2022-08-03T07:32:35;14.50;;;2.40;;
38683;SDS011;24910;53.248;-6.134;2022-08-03T07:35:16;9.43;;;1.98;;
38683;SDS011;24910;53.248;-6.134;2022-08-03T07:37:51;8.93;;;2.28;;
38683;SDS011;24910;53.248;-6.134;2022-08-03T07:40:21;6.95;;;1.58;;
38683;SDS011;24910;53.248;-6.134;2022-08-03T07:42:59;6.25;;;1.42;;
38683;SDS011;24910;53.248;-6.134;2022-08-03T07:45:30;6.90;;;1.52;;
38683;SDS011;24910;53.248;-6.134;2022-08-03T07:47:59;7.15;;;1.60;;
38683;SDS011;24910;53.248;-6.134;2022-08-03T07:50:28;10.02;;;1.63;;
38683;SDS011;24910;53.248;-6.134;2022-08-03T07:52:57;7.85;;;1.38;;
38683;SDS011;24910;53.248;-6.134;2022-08-03T07:55:26;8.73;;;1.77;;
38683;SDS011;24910;53.248;-6.134;2022-08-03T07:58:02;7.95;;;1.50;;
38683;SDS011;24910;53.248;-6.134;2022-08-03T08:00:37;7.15;;;1.63;;
38683;SDS011;24910;53.248;-6.134;2022-08-03T08:03:06;9.27;;;1.98;;
38683;SDS011;24910;53.248;-6.134;2022-08-03T08:05:36;4.70;;;1.35;;
38683;SDS011;24910;53.248;-6.134;2022-08-03T08:08:12;8.95;;;1.60;;
38683;SDS011;24910;53.248;-6.134;2022-08-03T08:10:41;7.55;;;1.60;;
38683;SDS011;24910;53.248;-6.134;2022-08-03T08:13:26;7.45;;;1.60;;
38683;SDS011;24910;53.248;-6.134;2022-08-03T08:15:55;9.43;;;1.50;;
38683;SDS011;24910;53.248;-6.134;2022-08-03T08:18:25;5.78;;;1.38;;
38683;SDS011;24910;53.248;-6.134;2022-08-03T08:20:55;6.90;;;1.70;;
38683;SDS011;24910;53.248;-6.134;2022-08-03T08:23:28;4.75;;;1.20;;
38683;SDS011;24910;53.248;-6.134;2022-08-03T08:26:21;5.63;;;1.30;;
38683;SDS011;24910;53.248;-6.134;2022-08-03T08:28:52;3.40;;;1.08;;
38683;SDS011;24910;53.248;-6.134;2022-08-03T08:31:21;4.97;;;1.40;;
38683;SDS011;24910;53.248;-6.134;2022-08-03T08:33:50;5.43;;;1.33;;
38683;SDS011;24910;53.248;-6.134;2022-08-03T08:36:34;5.53;;;1.30;;
38683;SDS011;24910;53.248;-6.134;2022-08-03T08:39:05;6.03;;;1.10;;
38683;SDS011;24910;53.248;-6.134;2022-08-03T08:41:34;4.90;;;1.30;;
38683;SDS011;24910;53.248;-6.134;2022-08-03T08:44:14;6.80;;;1.60;;
38683;SDS011;24910;53.248;-6.134;2022-08-03T08:46:43;5.33;;;1.07;;
38683;SDS011;24910;53.248;-6.134;2022-08-03T08:49:14;7.72;;;1.40;;
38683;SDS011;24910;53.248;-6.134;2022-08-03T08:51:45;5.97;;;1.30;;
38683;SDS011;24910;53.248;-6.134;2022-08-03T08:56:57;4.63;;;0.90;;
38683;SDS011;24910;53.248;-6.134;2022-08-03T08:59:30;6.10;;;1.20;;
38683;SDS011;24910;53.248;-6.134;2022-08-03T09:02:16;4.80;;;1.00;;
38683;SDS011;24910;53.248;-6.134;2022-08-03T09:04:46;4.93;;;1.13;;
38683;SDS011;24910;53.248;-6.134;2022-08-03T09:07:15;4.75;;;0.95;;
38683;SDS011;24910;53.248;-6.134;2022-08-03T09:09:46;4.22;;;1.10;;
38683;SDS011;24910;53.248;-6.134;2022-08-03T09:12:36;2.70;;;0.95;;
38683;SDS011;24910;53.248;-6.134;2022-08-03T09:15:17;4.85;;;0.93;;
38683;SDS011;24910;53.248;-6.134;2022-08-03T09:17:47;4.15;;;1.00;;
38683;SDS011;24910;53.248;-6.134;2022-08-03T09:20:17;3.45;;;1.00;;
38683;SDS011;24910;53.248;-6.134;2022-08-03T09:22:55;6.45;;;0.90;;
38683;SDS011;24910;53.248;-6.134;2022-08-03T09:25:26;3.20;;;1.00;;
38683;SDS011;24910;53.248;-6.134;2022-08-03T09:28:03;2.10;;;0.80;;
38683;SDS011;24910;53.248;-6.134;2022-08-03T09:30:37;5.93;;;1.25;;
38683;SDS011;24910;53.248;-6.134;2022-08-03T09:33:07;5.72;;;0.93;;
38683;SDS011;24910;53.248;-6.134;2022-08-03T09:35:41;4.78;;;1.02;;
38683;SDS011;24910;53.248;-6.134;2022-08-03T09:38:22;4.97;;;1.05;;
38683;SDS011;24910;53.248;-6.134;2022-08-03T09:40:54;4.18;;;1.10;;
38683;SDS011;24910;53.248;-6.134;2022-08-03T09:43:27;2.90;;;0.95;;
38683;SDS011;24910;53.248;-6.134;2022-08-03T09:46:14;2.63;;;0.90;;
38683;SDS011;24910;53.248;-6.134;2022-08-03T09:48:43;4.50;;;1.03;;
38683;SDS011;24910;53.248;-6.134;2022-08-03T09:51:12;4.97;;;1.10;;
38683;SDS011;24910;53.248;-6.134;2022-08-03T09:54:05;6.55;;;1.38;;
38683;SDS011;24910;53.248;-6.134;2022-08-03T09:56:44;3.83;;;0.90;;
38683;SDS011;24910;53.248;-6.134;2022-08-03T09:59:21;7.07;;;1.30;;
38683;SDS011;24910;53.248;-6.134;2022-08-03T10:01:53;5.22;;;1.17;;
38683;SDS011;24910;53.248;-6.134;2022-08-03T10:04:23;4.07;;;1.33;;
38683;SDS011;24910;53.248;-6.134;2022-08-03T10:07:06;4.10;;;1.13;;
38683;SDS011;24910;53.248;-6.134;2022-08-03T10:09:36;3.10;;;1.00;;
38683;SDS011;24910;53.248;-6.134;2022-08-03T10:12:06;6.13;;;1.08;;
38683;SDS011;24910;53.248;-6.134;2022-08-03T10:14:36;10.50;;;1.40;;
38683;SDS011;24910;53.248;-6.134;2022-08-03T10:17:09;5.65;;;1.50;;
38683;SDS011;24910;53.248;-6.134;2022-08-03T10:19:38;7.13;;;1.40;;
38683;SDS011;24910;53.248;-6.134;2022-08-03T10:22:09;6.32;;;1.17;;
38683;SDS011;24910;53.248;-6.134;2022-08-03T10:24:45;6.15;;;1.38;;
38683;SDS011;24910;53.248;-6.134;2022-08-03T10:27:18;11.02;;;1.40;;
38683;SDS011;24910;53.248;-6.134;2022-08-03T10:29:51;4.95;;;0.93;;
38683;SDS011;24910;53.248;-6.134;2022-08-03T10:32:26;2.95;;;0.82;;
38683;SDS011;24910;53.248;-6.134;2022-08-03T10:34:58;4.07;;;0.90;;
38683;SDS011;24910;53.248;-6.134;2022-08-03T10:37:48;6.63;;;0.90;;
38683;SDS011;24910;53.248;-6.134;2022-08-03T10:40:23;2.40;;;0.80;;
38683;SDS011;24910;53.248;-6.134;2022-08-03T10:43:17;4.47;;;1.00;;
38683;SDS011;24910;53.248;-6.134;2022-08-03T10:45:48;3.97;;;1.05;;
38683;SDS011;24910;53.248;-6.134;2022-08-03T10:48:19;6.63;;;0.95;;
38683;SDS011;24910;53.248;-6.134;2022-08-03T10:53:32;5.28;;;1.05;;
38683;SDS011;24910;53.248;-6.134;2022-08-03T10:56:03;3.83;;;0.70;;
38683;SDS011;24910;53.248;-6.134;2022-08-03T10:59:10;3.90;;;0.70;;
38683;SDS011;24910;53.248;-6.134;2022-08-03T11:01:54;3.85;;;0.60;;
38683;SDS011;24910;53.248;-6.134;2022-08-03T11:04:28;2.50;;;0.65;;
38683;SDS011;24910;53.248;-6.134;2022-08-03T11:12:21;2.78;;;0.80;;
38683;SDS011;24910;53.248;-6.134;2022-08-03T11:14:59;4.57;;;1.55;;
38683;SDS011;24910;53.248;-6.134;2022-08-03T11:17:31;3.30;;;1.15;;
38683;SDS011;24910;53.248;-6.134;2022-08-03T11:23:19;3.17;;;0.60;;
38683;SDS011;24910;53.248;-6.134;2022-08-03T11:26:26;1.50;;;0.55;;
38683;SDS011;24910;53.248;-6.134;2022-08-03T11:29:06;1.75;;;0.50;;
38683;SDS011;24910;53.248;-6.134;2022-08-03T11:31:54;1.58;;;0.50;;
38683;SDS011;24910;53.248;-6.134;2022-08-03T11:34:23;2.65;;;0.57;;
38683;SDS011;24910;53.248;-6.134;2022-08-03T11:39:53;1.40;;;0.50;;
38683;SDS011;24910;53.248;-6.134;2022-08-03T11:42:39;1.20;;;0.47;;
38683;SDS011;24910;53.248;-6.134;2022-08-03T11:45:11;1.73;;;0.60;;
38683;SDS011;24910;53.248;-6.134;2022-08-03T11:47:41;2.33;;;0.52;;
38683;SDS011;24910;53.248;-6.134;2022-08-03T11:50:18;2.92;;;0.70;;
38683;SDS011;24910;53.248;-6.134;2022-08-03T11:52:49;2.78;;;0.88;;
38683;SDS011;24910;53.248;-6.134;2022-08-03T11:55:18;3.63;;;0.60;;
38683;SDS011;24910;53.248;-6.134;2022-08-03T11:57:48;1.90;;;0.55;;
38683;SDS011;24910;53.248;-6.134;2022-08-03T12:00:37;1.92;;;0.60;;
38683;SDS011;24910;53.248;-6.134;2022-08-03T12:03:07;2.60;;;0.65;;
38683;SDS011;24910;53.248;-6.134;2022-08-03T12:05:39;1.73;;;0.70;;
38683;SDS011;24910;53.248;-6.134;2022-08-03T12:08:30;1.35;;;0.40;;
38683;SDS011;24910;53.248;-6.134;2022-08-03T12:11:02;1.30;;;0.52;;
38683;SDS011;24910;53.248;-6.134;2022-08-03T12:13:36;3.15;;;0.63;;
38683;SDS011;24910;53.248;-6.134;2022-08-03T12:16:28;1.48;;;0.70;;
38683;SDS011;24910;53.248;-6.134;2022-08-03T12:18:57;2.55;;;0.88;;
38683;SDS011;24910;53.248;-6.134;2022-08-03T12:21:27;4.18;;;0.90;;
38683;SDS011;24910;53.248;-6.134;2022-08-03T12:23:58;2.97;;;0.77;;
38683;SDS011;24910;53.248;-6.134;2022-08-03T12:26:29;2.05;;;0.70;;
38683;SDS011;24910;53.248;-6.134;2022-08-03T12:29:20;1.45;;;0.70;;
38683;SDS011;24910;53.248;-6.134;2022-08-03T12:34:22;1.42;;;0.60;;
38683;SDS011;24910;53.248;-6.134;2022-08-03T12:36:56;1.42;;;0.77;;
38683;SDS011;24910;53.248;-6.134;2022-08-03T12:39:29;1.63;;;0.63;;
38683;SDS011;24910;53.248;-6.134;2022-08-03T12:41:58;1.20;;;0.70;;
38683;SDS011;24910;53.248;-6.134;2022-08-03T12:44:28;1.88;;;0.65;;
38683;SDS011;24910;53.248;-6.134;2022-08-03T12:46:58;1.15;;;0.70;;
38683;SDS011;24910;53.248;-6.134;2022-08-03T12:49:28;4.22;;;0.77;;
38683;SDS011;24910;53.248;-6.134;2022-08-03T12:52:12;0.75;;;0.50;;
38683;SDS011;24910;53.248;-6.134;2022-08-03T12:54:52;0.77;;;0.65;;
38683;SDS011;24910;53.248;-6.134;2022-08-03T12:57:22;2.72;;;0.80;;
38683;SDS011;24910;53.248;-6.134;2022-08-03T12:59:52;2.10;;;0.60;;
38683;SDS011;24910;53.248;-6.134;2022-08-03T13:02:23;1.02;;;0.57;;
38683;SDS011;24910;53.248;-6.134;2022-08-03T13:07:22;2.17;;;0.60;;
38683;SDS011;24910;53.248;-6.134;2022-08-03T13:09:54;1.55;;;0.60;;
38683;SDS011;24910;53.248;-6.134;2022-08-03T13:12:24;2.88;;;0.55;;
38683;SDS011;24910;53.248;-6.134;2022-08-03T13:14:55;0.45;;;0.43;;
38683;SDS011;24910;53.248;-6.134;2022-08-03T13:17:25;1.10;;;0.60;;
38683;SDS011;24910;53.248;-6.134;2022-08-03T13:19:55;1.10;;;0.60;;
38683;SDS011;24910;53.248;-6.134;2022-08-03T13:22:25;2.67;;;0.60;;
38683;SDS011;24910;53.248;-6.134;2022-08-03T13:24:56;0.30;;;0.30;;
38683;SDS011;24910;53.248;-6.134;2022-08-03T13:27:27;0.43;;;0.40;;
38683;SDS011;24910;53.248;-6.134;2022-08-03T13:30:17;1.02;;;0.50;;
38683;SDS011;24910;53.248;-6.134;2022-08-03T13:32:56;1.17;;;0.40;;
38683;SDS011;24910;53.248;-6.134;2022-08-03T13:35:26;0.50;;;0.50;;
38683;SDS011;24910;53.248;-6.134;2022-08-03T13:37:56;0.55;;;0.40;;
38683;SDS011;24910;53.248;-6.134;2022-08-03T13:40:26;0.50;;;0.50;;
38683;SDS011;24910;53.248;-6.134;2022-08-03T13:43:02;1.25;;;0.70;;
38683;SDS011;24910;53.248;-6.134;2022-08-03T13:45:31;2.50;;;0.95;;
38683;SDS011;24910;53.248;-6.134;2022-08-03T13:48:00;1.45;;;0.70;;
38683;SDS011;24910;53.248;-6.134;2022-08-03T13:50:30;5.97;;;0.80;;
38683;SDS011;24910;53.248;-6.134;2022-08-03T13:52:59;3.22;;;0.80;;
38683;SDS011;24910;53.248;-6.134;2022-08-03T13:55:29;2.85;;;0.70;;
38683;SDS011;24910;53.248;-6.134;2022-08-03T14:00:33;2.72;;;0.70;;
38683;SDS011;24910;53.248;-6.134;2022-08-03T14:03:03;4.00;;;1.02;;
38683;SDS011;24910;53.248;-6.134;2022-08-03T14:05:40;0.90;;;0.60;;
38683;SDS011;24910;53.248;-6.134;2022-08-03T14:08:20;1.98;;;0.75;;
38683;SDS011;24910;53.248;-6.134;2022-08-03T14:11:02;1.42;;;0.93;;
38683;SDS011;24910;53.248;-6.134;2022-08-03T14:13:32;0.90;;;0.82;;
38683;SDS011;24910;53.248;-6.134;2022-08-03T14:16:01;4.88;;;1.00;;
38683;SDS011;24910;53.248;-6.134;2022-08-03T14:18:35;3.00;;;0.95;;
38683;SDS011;24910;53.248;-6.134;2022-08-03T14:21:18;2.40;;;0.70;;
38683;SDS011;24910;53.248;-6.134;2022-08-03T14:23:50;1.25;;;0.60;;
38683;SDS011;24910;53.248;-6.134;2022-08-03T14:26:22;1.17;;;0.80;;
38683;SDS011;24910;53.248;-6.134;2022-08-03T14:28:51;1.73;;;0.70;;
38683;SDS011;24910;53.248;-6.134;2022-08-03T14:31:20;2.95;;;0.63;;
38683;SDS011;24910;53.248;-6.134;2022-08-03T14:34:10;4.97;;;0.80;;
38683;SDS011;24910;53.248;-6.134;2022-08-03T14:36:40;1.52;;;0.60;;
38683;SDS011;24910;53.248;-6.134;2022-08-03T14:39:09;0.98;;;0.50;;
38683;SDS011;24910;53.248;-6.134;2022-08-03T14:41:40;0.82;;;0.73;;
38683;SDS011;24910;53.248;-6.134;2022-08-03T14:44:09;1.27;;;0.93;;
38683;SDS011;24910;53.248;-6.134;2022-08-03T14:46:38;1.80;;;0.80;;
38683;SDS011;24910;53.248;-6.134;2022-08-03T14:49:07;3.83;;;0.65;;
38683;SDS011;24910;53.248;-6.134;2022-08-03T14:51:56;3.15;;;0.80;;
38683;SDS011;24910;53.248;-6.134;2022-08-03T14:54:25;0.60;;;0.60;;
38683;SDS011;24910;53.248;-6.134;2022-08-03T14:56:58;0.95;;;0.60;;
38683;SDS011;24910;53.248;-6.134;2022-08-03T14:59:27;1.90;;;0.80;;
38683;SDS011;24910;53.248;-6.134;2022-08-03T15:02:16;2.58;;;0.82;;
38683;SDS011;24910;53.248;-6.134;2022-08-03T15:04:50;1.73;;;0.60;;
38683;SDS011;24910;53.248;-6.134;2022-08-03T15:07:19;5.35;;;0.60;;
38683;SDS011;24910;53.248;-6.134;2022-08-03T15:09:49;0.80;;;0.80;;
38683;SDS011;24910;53.248;-6.134;2022-08-03T15:12:19;1.35;;;0.52;;
38683;SDS011;24910;53.248;-6.134;2022-08-03T15:14:49;2.90;;;0.70;;
38683;SDS011;24910;53.248;-6.134;2022-08-03T15:17:18;2.47;;;0.70;;
38683;SDS011;24910;53.248;-6.134;2022-08-03T15:19:47;2.78;;;0.75;;
38683;SDS011;24910;53.248;-6.134;2022-08-03T15:22:37;1.83;;;0.80;;
38683;SDS011;24910;53.248;-6.134;2022-08-03T15:25:07;1.30;;;0.80;;
38683;SDS011;24910;53.248;-6.134;2022-08-03T15:28:00;1.90;;;0.63;;
38683;SDS011;24910;53.248;-6.134;2022-08-03T15:30:31;3.00;;;0.95;;
38683;SDS011;24910;53.248;-6.134;2022-08-03T15:33:03;2.25;;;0.65;;
38683;SDS011;24910;53.248;-6.134;2022-08-03T15:35:32;1.10;;;0.68;;
38683;SDS011;24910;53.248;-6.134;2022-08-03T15:38:01;2.10;;;0.70;;
38683;SDS011;24910;53.248;-6.134;2022-08-03T15:40:35;0.95;;;0.60;;